Time;durP1;ratioP1;P1;durP2;ratioP2;P2;SDS_P1;SDS_P2;PMS_P1;PMS_P2;Temp;Humidity;BMP_temperature;BMP_pressure;BME280_temperature;BME280_humidity;BME280_pressure;Samples;Min_cycle;Max_cycle;Signal;HPM_P1;HPM_P2
2022/04/23 00:02:00;;;;;;;21.27;15.32;;;;;;;-139.48;100.00;61774.03;4965796;28;20069;-69
2022/04/23 00:04:44;;;;;;;20.40;15.52;;;;;;;-139.48;100.00;61774.03;4966122;28;20053;-69
2022/04/23 00:07:27;;;;;;;24.15;16.48;;;;;;;-139.48;100.00;61774.03;4980336;28;20050;-69
2022/04/23 00:10:11;;;;;;;24.70;15.73;;;;;;;-139.48;100.00;61774.03;4980458;28;20069;-69
2022/04/23 00:12:55;;;;;;;22.20;14.98;;;;;;;-139.48;100.00;61774.03;4966033;28;20045;-69
2022/04/23 00:15:39;;;;;;;19.73;14.30;;;;;;;-139.48;100.00;61774.03;4966019;28;20264;-69
2022/04/23 00:18:23;;;;;;;24.13;15.52;;;;;;;-139.48;100.00;61774.03;4965657;28;20075;-69
2022/04/23 00:21:07;;;;;;;23.73;15.07;;;;;;;-139.48;100.00;61774.03;4965703;28;20045;-69
2022/04/23 00:23:51;;;;;;;21.52;15.35;;;;;;;-139.48;100.00;61774.03;4980301;28;20105;-69
2022/04/23 00:26:35;;;;;;;25.95;15.65;;;;;;;-139.48;100.00;61774.03;4952254;28;20046;-69
2022/04/23 00:29:18;;;;;;;22.67;15.48;;;;;;;-139.48;100.00;61774.03;4980258;28;20478;-69
2022/04/23 00:32:03;;;;;;;26.58;17.67;;;;;;;-139.48;100.00;61774.03;4962709;28;20410;-69
2022/04/23 00:34:49;;;;;;;23.33;15.65;;;;;;;-139.48;100.00;61774.03;4962597;28;20049;-69
2022/04/23 00:37:33;;;;;;;26.20;17.85;;;;;;;-139.48;100.00;61774.03;4963062;28;20510;-69
2022/04/23 00:40:17;;;;;;;;;;;;;;;-139.48;100.00;61774.03;4949399;28;20402;-69
2022/04/23 00:43:05;;;;;;;24.38;17.50;;;;;;;-139.48;100.00;61774.03;4977391;28;19920;-69
2022/04/23 00:45:49;;;;;;;22.75;16.27;;;;;;;-139.48;100.00;61774.03;4977268;28;20057;-69
2022/04/23 00:48:33;;;;;;;22.02;16.40;;;;;;;-139.48;100.00;61774.03;4948855;28;20049;-69
2022/04/23 00:51:17;;;;;;;23.95;17.70;;;;;;;-139.48;100.00;61774.03;4962809;28;20089;-69
2022/04/23 00:54:09;;;;;;;27.70;17.52;;;;;;;-139.48;100.00;61774.03;4948928;28;20134;-69
2022/04/23 00:56:53;;;;;;;25.30;17.70;;;;;;;-139.48;100.00;61774.03;4963010;28;20041;-69
2022/04/23 00:59:38;;;;;;;27.60;17.45;;;;;;;-139.48;100.00;61774.03;4962072;28;20105;-69
2022/04/23 01:02:22;;;;;;;27.17;18.25;;;;;;;-139.48;100.00;61774.03;4976999;28;20132;-69
2022/04/23 01:05:10;;;;;;;23.83;17.52;;;;;;;-139.48;100.00;61774.03;4962670;28;20101;-69
2022/04/23 01:07:55;;;;;;;26.95;18.60;;;;;;;-139.48;100.00;61774.03;4962517;28;20101;-69
2022/04/23 01:10:39;;;;;;;25.77;17.80;;;;;;;-139.48;100.00;61774.03;4976691;28;20105;-69
2022/04/23 01:13:25;;;;;;;25.27;18.75;;;;;;;-139.48;100.00;61774.03;4948986;28;20053;-69
2022/04/23 01:16:10;;;;;;;29.73;18.30;;;;;;;-139.48;100.00;61774.03;4976445;28;20049;-69
2022/04/23 01:18:54;;;;;;;25.67;18.30;;;;;;;-139.48;100.00;61774.03;4961953;28;20514;-69
2022/04/23 01:21:38;;;;;;;26.08;18.90;;;;;;;-139.48;100.00;61774.03;4976414;28;20513;-69
2022/04/23 01:24:22;;;;;;;32.90;19.25;;;;;;;-139.48;100.00;61774.03;4961680;28;20070;-69
2022/04/23 01:27:06;;;;;;;24.30;17.75;;;;;;;-139.48;100.00;61774.03;4961768;28;20270;-69
2022/04/23 01:29:50;;;;;;;27.77;19.23;;;;;;;-139.48;100.00;61774.03;4976491;28;20049;-69
2022/04/23 01:32:34;;;;;;;25.73;18.17;;;;;;;-139.48;100.00;61774.03;4976215;28;20089;-69
2022/04/23 01:35:18;;;;;;;27.05;19.77;;;;;;;-139.48;100.00;61774.03;4976409;28;20134;-69
2022/04/23 01:38:02;;;;;;;25.13;19.02;;;;;;;-139.48;100.00;61774.03;5015305;22;20110;-70
2022/04/23 01:40:46;;;;;;;27.70;19.70;;;;;;;-139.48;100.00;61774.03;4995230;28;20061;-71
2022/04/23 01:43:30;;;;;;;;;;;;;;;-139.48;100.00;61774.03;4995903;28;20049;-70
2022/04/23 01:46:14;;;;;;;26.40;18.33;;;;;;;-139.48;100.00;61774.03;4994312;28;19920;-71
2022/04/23 01:48:57;;;;;;;28.77;19.42;;;;;;;-139.48;100.00;61774.03;4975028;28;20109;-71
2022/04/23 01:51:41;;;;;;;26.67;18.05;;;;;;;-139.48;100.00;61774.03;4974820;28;20101;-71
2022/04/23 01:54:25;;;;;;;25.23;17.60;;;;;;;-139.48;100.00;61774.03;4975763;28;20054;-71
2022/04/23 01:57:09;;;;;;;25.73;18.40;;;;;;;-139.48;100.00;61774.03;4974860;28;20051;-71
2022/04/23 01:59:53;;;;;;;25.10;17.88;;;;;;;-139.48;100.00;61774.03;4974651;28;20057;-71
2022/04/23 02:02:37;;;;;;;25.42;18.45;;;;;;;-139.48;100.00;61774.03;4961443;28;20049;-71
2022/04/23 02:05:21;;;;;;;24.70;17.30;;;;;;;-139.48;100.00;61774.03;4974816;28;20105;-71
2022/04/23 02:08:05;;;;;;;27.55;18.92;;;;;;;-139.48;100.00;61774.03;4960729;28;20057;-71
2022/04/23 02:10:50;;;;;;;27.58;18.85;;;;;;;-139.48;100.00;61774.03;4947471;28;20415;-70
2022/04/23 02:13:34;;;;;;;26.95;19.38;;;;;;;-139.48;100.00;61774.03;4975675;28;20497;-70
2022/04/23 02:16:18;;;;;;;26.38;19.10;;;;;;;-139.48;100.00;61774.03;4975314;28;20053;-71
2022/04/23 02:19:03;;;;;;;27.40;19.45;;;;;;;-139.48;100.00;61774.03;4975347;28;20113;-71
2022/04/23 02:21:47;;;;;;;26.00;18.58;;;;;;;-139.48;100.00;61774.03;4960791;28;20049;-71
2022/04/23 02:24:31;;;;;;;26.50;19.17;;;;;;;-139.48;100.00;61774.03;4974201;28;20562;-70
2022/04/23 02:27:15;;;;;;;26.77;17.65;;;;;;;-139.48;100.00;61774.03;4974159;28;20134;-71
2022/04/23 02:29:59;;;;;;;27.20;19.30;;;;;;;-139.48;100.00;61774.03;4975037;28;20177;-71
2022/04/23 02:32:44;;;;;;;26.73;18.63;;;;;;;-139.48;100.00;61774.03;4974633;28;20049;-71
2022/04/23 02:35:28;;;;;;;29.75;19.08;;;;;;;-139.48;100.00;61774.03;4975267;28;20402;-71
2022/04/23 02:38:17;;;;;;;27.42;18.55;;;;;;;-139.48;100.00;61774.03;4974040;28;20442;-71
2022/04/23 02:41:00;;;;;;;26.08;18.65;;;;;;;-139.48;100.00;61774.03;4975188;28;20089;-71
2022/04/23 02:43:45;;;;;;;31.30;20.05;;;;;;;-139.48;100.00;61774.03;4974126;28;20050;-71
2022/04/23 02:46:30;;;;;;;27.13;19.08;;;;;;;-139.48;100.00;61774.03;4974055;28;20046;-71
2022/04/23 02:49:14;;;;;;;24.15;17.38;;;;;;;-139.48;100.00;61774.03;4974691;28;20045;-71
2022/04/23 02:51:58;;;;;;;27.75;19.52;;;;;;;-139.48;100.00;61774.03;4974059;28;20478;-71
2022/04/23 02:54:42;;;;;;;25.85;17.88;;;;;;;-139.48;100.00;61774.03;4973262;28;20053;-71
2022/04/23 02:57:26;;;;;;;25.00;18.20;;;;;;;-139.48;100.00;61774.03;4974012;28;20049;-71
2022/04/23 03:00:11;;;;;;;28.10;18.77;;;;;;;-139.48;100.00;61774.03;4974572;28;20050;-71
2022/04/23 03:02:55;;;;;;;23.65;16.95;;;;;;;-139.48;100.00;61774.03;4974883;28;20053;-71
2022/04/23 03:05:41;;;;;;;24.25;17.42;;;;;;;-139.48;100.00;61774.03;4973875;28;20453;-71
2022/04/23 03:08:25;;;;;;;27.42;18.02;;;;;;;-139.48;100.00;61774.03;4973384;28;20097;-70
2022/04/23 03:11:10;;;;;;;25.88;17.85;;;;;;;-139.48;100.00;61774.03;4974775;28;20474;-71
2022/04/23 03:13:55;;;;;;;28.35;18.58;;;;;;;-139.48;100.00;61774.03;4973538;28;20116;-71
2022/04/23 03:16:39;;;;;;;28.83;17.48;;;;;;;-139.48;100.00;61774.03;4973725;28;20050;-70
2022/04/23 03:19:22;;;;;;;27.35;18.98;;;;;;;-139.48;100.00;61774.03;4973459;28;20561;-71
2022/04/23 03:22:06;;;;;;;28.23;18.70;;;;;;;-139.48;100.00;61774.03;4960259;28;20049;-71
2022/04/23 03:24:51;;;;;;;23.80;17.38;;;;;;;-139.48;100.00;61774.03;4959837;28;20482;-71
2022/04/23 03:27:35;;;;;;;27.92;18.75;;;;;;;-139.48;100.00;61774.03;4974305;28;20475;-70
2022/04/23 03:30:20;;;;;;;25.63;18.75;;;;;;;-139.48;100.00;61774.03;4974593;28;20065;-70
2022/04/23 03:33:04;;;;;;;26.55;19.10;;;;;;;-139.48;100.00;61774.03;4973594;28;20057;-68
2022/04/23 03:35:48;;;;;;;28.25;19.10;;;;;;;-139.48;100.00;61774.03;4974403;28;20058;-70
2022/04/23 03:38:32;;;;;;;24.40;17.05;;;;;;;-139.48;100.00;61774.03;4959923;28;20146;-71
2022/04/23 03:41:17;;;;;;;25.27;17.55;;;;;;;-139.48;100.00;61774.03;4959848;28;20046;-71
2022/04/23 03:44:01;;;;;;;25.38;17.33;;;;;;;-139.48;100.00;61774.03;4974209;28;20518;-71
2022/04/23 03:46:45;;;;;;;26.50;18.20;;;;;;;-139.48;100.00;61774.03;4974128;28;20057;-71
2022/04/23 03:49:29;;;;;;;27.88;18.73;;;;;;;-139.48;100.00;61774.03;4974481;28;20177;-71
2022/04/23 03:52:14;;;;;;;23.90;17.30;;;;;;;-139.48;100.00;61774.03;4974253;28;20544;-71
2022/04/23 03:54:57;;;;;;;27.10;18.20;;;;;;;-139.48;100.00;61774.03;4974118;28;20414;-70
2022/04/23 03:57:46;;;;;;;25.98;18.17;;;;;;;-139.48;100.00;61774.03;4974378;28;20054;-71
2022/04/23 04:00:31;;;;;;;27.13;17.58;;;;;;;-139.48;100.00;61774.03;4959540;28;20049;-70
2022/04/23 04:03:15;;;;;;;26.17;17.85;;;;;;;-139.48;100.00;61774.03;4973072;28;20089;-70
2022/04/23 04:05:59;;;;;;;26.30;19.23;;;;;;;-139.48;100.00;61774.03;4974289;28;20045;-71
2022/04/23 04:08:44;;;;;;;26.05;17.67;;;;;;;-139.48;100.00;61774.03;4977617;28;20045;-71
2022/04/23 04:12:01;;;;;;;25.23;17.48;;;;;;;-139.48;100.00;61774.03;4976932;28;20128;-71
2022/04/23 04:14:34;;;;;;;26.83;18.03;;;;;;;-139.48;100.00;61774.03;4977366;28;20094;-70
2022/04/23 04:17:18;;;;;;;28.98;18.48;;;;;;;-139.48;100.00;61774.03;4977528;28;20533;-71
2022/04/23 04:20:03;;;;;;;26.52;18.40;;;;;;;-139.48;100.00;61774.03;4976458;28;20049;-71
2022/04/23 04:22:47;;;;;;;28.98;18.80;;;;;;;-139.48;100.00;61774.03;4977427;28;20097;-71
2022/04/23 04:25:31;;;;;;;28.40;19.23;;;;;;;-139.48;100.00;61774.03;4976546;28;20045;-71
2022/04/23 04:28:15;;;;;;;28.35;17.95;;;;;;;-139.48;100.00;61774.03;4976457;28;20097;-71
2022/04/23 04:34:02;;;;;;;27.63;18.48;;;;;;;-139.48;100.00;61774.03;4976620;28;20525;-71
2022/04/23 04:36:47;;;;;;;27.80;18.80;;;;;;;-139.48;100.00;61774.03;4977195;28;20577;-71
2022/04/23 04:39:31;;;;;;;27.70;19.08;;;;;;;-139.48;100.00;61774.03;4962500;28;20057;-71
2022/04/23 04:42:15;;;;;;;25.83;18.08;;;;;;;-139.48;100.00;61774.03;4962770;28;20522;-71
2022/04/23 04:44:59;;;;;;;27.48;18.45;;;;;;;-139.48;100.00;61774.03;4976625;28;20062;-71
2022/04/23 04:47:43;;;;;;;27.52;18.20;;;;;;;-139.48;100.00;61774.03;4976350;28;20054;-71
2022/04/23 04:50:27;;;;;;;27.00;18.20;;;;;;;-139.48;100.00;61774.03;4976359;28;20054;-71
2022/04/23 04:53:11;;;;;;;26.75;18.13;;;;;;;-139.48;100.00;61774.03;4975933;28;20097;-71
2022/04/23 04:55:55;;;;;;;29.10;18.55;;;;;;;-139.48;100.00;61774.03;4962445;28;20049;-71
2022/04/23 04:58:43;;;;;;;27.38;18.38;;;;;;;-139.48;100.00;61774.03;4962104;28;20050;-70
2022/04/23 05:01:28;;;;;;;24.27;17.63;;;;;;;-139.48;100.00;61774.03;4977012;28;20057;-71
2022/04/23 05:04:12;;;;;;;25.73;18.05;;;;;;;-139.48;100.00;61774.03;4961996;28;20458;-71
2022/04/23 05:06:56;;;;;;;24.42;17.63;;;;;;;-139.48;100.00;61774.03;4975892;28;20060;-71
2022/04/23 05:09:40;;;;;;;25.83;17.30;;;;;;;-139.48;100.00;61774.03;4976840;28;20054;-70
2022/04/23 05:12:24;;;;;;;22.52;17.02;;;;;;;-139.48;100.00;61774.03;4975501;28;20054;-71
2022/04/23 05:15:08;;;;;;;22.35;16.80;;;;;;;-139.48;100.00;61774.03;4976047;28;20419;-71
2022/04/23 05:17:52;;;;;;;24.65;17.23;;;;;;;-139.48;100.00;61774.03;4961837;28;20562;-71
2022/04/23 05:20:36;;;;;;;22.33;15.93;;;;;;;-139.48;100.00;61774.03;4976641;28;20100;-71
2022/04/23 05:23:19;;;;;;;21.48;16.13;;;;;;;-139.48;100.00;61774.03;4961972;28;20049;-70
2022/04/23 05:26:04;;;;;;;23.98;16.83;;;;;;;-139.48;100.00;61774.03;4976563;28;20073;-71
2022/04/23 05:28:47;;;;;;;22.35;16.02;;;;;;;-139.48;100.00;61774.03;4975613;28;20042;-70
2022/04/23 05:31:32;;;;;;;22.60;16.45;;;;;;;-139.48;100.00;61774.03;4976205;28;20174;-71
2022/04/23 05:34:16;;;;;;;24.73;16.90;;;;;;;-139.48;100.00;61774.03;4975413;28;20101;-71
2022/04/23 05:36:59;;;;;;;22.25;16.45;;;;;;;-139.48;100.00;61774.03;4975371;28;20459;-71
2022/04/23 05:39:43;;;;;;;20.50;15.18;;;;;;;-139.48;100.00;61774.03;4974915;28;20435;-71
2022/04/23 05:42:27;;;;;;;20.15;14.88;;;;;;;-139.48;100.00;61774.03;4976257;28;20058;-71
2022/04/23 05:45:11;;;;;;;19.83;15.07;;;;;;;-139.48;100.00;61774.03;4961540;28;20101;-70
2022/04/23 05:47:55;;;;;;;20.65;15.27;;;;;;;-139.48;100.00;61774.03;4974903;28;20100;-71
2022/04/23 05:50:39;;;;;;;19.75;14.82;;;;;;;-139.48;100.00;61774.03;4961364;28;20045;-71
2022/04/23 05:53:23;;;;;;;22.08;15.35;;;;;;;-139.48;100.00;61774.03;4975815;28;20054;-71
2022/04/23 05:56:07;;;;;;;18.60;13.93;;;;;;;-139.48;100.00;61774.03;4974703;28;20045;-71
2022/04/23 05:58:51;;;;;;;17.67;14.10;;;;;;;-139.48;100.00;61774.03;4975816;28;20077;-71
2022/04/23 06:01:35;;;;;;;18.02;13.98;;;;;;;-139.48;100.00;61774.03;4974628;28;20435;-71
2022/04/23 06:04:19;;;;;;;18.95;14.23;;;;;;;-139.48;100.00;61774.03;4974592;28;20053;-70
2022/04/23 06:07:03;;;;;;;19.90;14.50;;;;;;;-139.48;100.00;61774.03;4975767;28;20093;-70
2022/04/23 06:09:47;;;;;;;18.48;13.95;;;;;;;-139.48;100.00;61774.03;4974667;28;20134;-70
2022/04/23 06:12:31;;;;;;;20.02;15.20;;;;;;;-139.48;100.00;61774.03;4975733;28;20439;-70
2022/04/23 06:15:16;;;;;;;17.85;13.88;;;;;;;-139.48;100.00;61774.03;4974374;28;20053;-70
2022/04/23 06:18:00;;;;;;;20.13;15.38;;;;;;;-139.48;100.00;61774.03;4974553;28;20049;-70
2022/04/23 06:20:43;;;;;;;17.45;12.98;;;;;;;-139.48;100.00;61774.03;4974275;28;20053;-70
2022/04/23 06:23:27;;;;;;;19.48;13.05;;;;;;;-139.48;100.00;61774.03;4975273;28;20081;-70
2022/04/23 06:26:11;;;;;;;18.25;13.30;;;;;;;-139.48;100.00;61774.03;4960807;28;20057;-70
2022/04/23 06:28:56;;;;;;;17.80;13.15;;;;;;;-139.48;100.00;61774.03;4973984;28;20057;-70
2022/04/23 06:31:41;;;;;;;16.83;12.85;;;;;;;-139.48;100.00;61774.03;4960626;28;20053;-70
2022/04/23 06:34:25;;;;;;;15.85;11.45;;;;;;;-139.48;100.00;61774.03;4960924;28;20058;-70
2022/04/23 06:37:09;;;;;;;14.98;11.52;;;;;;;-139.48;100.00;61774.03;4974301;28;20050;-70
2022/04/23 06:39:53;;;;;;;15.23;12.00;;;;;;;-139.48;100.00;61774.03;4975076;28;20101;-70
2022/04/23 06:42:41;;;;;;;15.07;11.57;;;;;;;-139.48;100.00;61774.03;4975187;28;20109;-70
2022/04/23 06:45:25;;;;;;;16.35;11.45;;;;;;;-139.48;100.00;61774.03;4975396;28;20097;-70
2022/04/23 06:48:09;;;;;;;14.75;11.10;;;;;;;-139.48;100.00;61774.03;4974694;28;20186;-70
2022/04/23 06:50:53;;;;;;;13.70;10.75;;;;;;;-139.48;100.00;61774.03;4974806;28;20054;-70
2022/04/23 06:53:37;;;;;;;14.00;10.82;;;;;;;-139.48;100.00;61774.03;4974760;28;20423;-70
2022/04/23 06:56:20;;;;;;;13.25;9.70;;;;;;;-139.48;100.00;61774.03;4974867;28;20467;-70
2022/04/23 06:59:04;;;;;;;13.80;10.82;;;;;;;-139.48;100.00;61774.03;4973958;28;20486;-70
2022/04/23 07:01:48;;;;;;;14.50;10.63;;;;;;;-139.48;100.00;61774.03;4974670;28;20254;-70
2022/04/23 07:04:32;;;;;;;14.15;10.43;;;;;;;-139.48;100.00;61774.03;4974733;28;20126;-70
2022/04/23 07:07:16;;;;;;;12.57;9.68;;;;;;;-139.48;100.00;61774.03;4974122;28;20057;-70
2022/04/23 07:10:00;;;;;;;12.98;9.63;;;;;;;-139.48;100.00;61774.03;4974744;28;20410;-70
2022/04/23 07:12:44;;;;;;;11.45;9.40;;;;;;;-139.48;100.00;61774.03;4974759;28;20049;-70
2022/04/23 07:15:28;;;;;;;13.13;9.20;;;;;;;-139.48;100.00;61774.03;4959894;28;20057;-70
2022/04/23 07:18:12;;;;;;;13.90;9.20;;;;;;;-139.48;100.00;61774.03;4959974;28;20058;-70
2022/04/23 07:20:56;;;;;;;11.05;8.98;;;;;;;-139.48;100.00;61774.03;4973495;28;20483;-70
2022/04/23 07:26:43;;;;;;;12.48;8.40;;;;;;;-139.48;100.00;61774.03;4974633;28;20096;-70
2022/04/23 07:29:28;;;;;;;9.32;7.80;;;;;;;-139.48;100.00;61774.03;4959731;28;20069;-70
2022/04/23 07:32:11;;;;;;;10.75;8.85;;;;;;;-139.48;100.00;61774.03;4974389;28;20101;-70
2022/04/23 07:38:19;;;;;;;11.20;8.35;;;;;;;-139.48;100.00;61774.03;4974290;28;20557;-71
2022/04/23 07:41:03;;;;;;;11.32;7.72;;;;;;;-139.48;100.00;61774.03;5011676;23;20085;-69
2022/04/23 07:43:48;;;;;;;10.38;7.95;;;;;;;-139.48;100.00;61774.03;4996785;28;20057;-69
2022/04/23 07:46:32;;;;;;;10.32;8.25;;;;;;;-139.48;100.00;61774.03;4997478;28;20129;-69
2022/04/23 07:49:16;;;;;;;8.80;7.63;;;;;;;-139.48;100.00;61774.03;4996521;28;20072;-69
2022/04/23 07:52:00;;;;;;;10.48;7.50;;;;;;;-139.48;100.00;61774.03;4996563;28;20141;-69
2022/04/23 07:54:44;;;;;;;9.75;8.27;;;;;;;-139.48;100.00;61774.03;4982881;28;20054;-69
2022/04/23 07:57:28;;;;;;;10.70;7.88;;;;;;;-139.48;100.00;61774.03;4997336;28;20073;-69
2022/04/23 08:00:13;;;;;;;10.57;6.80;;;;;;;-139.48;100.00;61774.03;4997251;28;20096;-69
2022/04/23 08:03:03;;;;;;;8.73;7.00;;;;;;;-139.48;100.00;61774.03;4996780;28;20053;-69
2022/04/23 08:05:47;;;;;;;10.68;7.38;;;;;;;-139.48;100.00;61774.03;4996344;28;20050;-69
2022/04/23 08:08:31;;;;;;;8.23;6.43;;;;;;;-139.48;100.00;61774.03;4996995;28;20049;-69
2022/04/23 08:11:15;;;;;;;8.10;6.90;;;;;;;-139.48;100.00;61774.03;4995939;28;20113;-69
2022/04/23 08:13:59;;;;;;;8.50;6.65;;;;;;;-139.48;100.00;61774.03;4996266;28;20053;-70
2022/04/23 08:16:45;;;;;;;7.68;6.18;;;;;;;-139.48;100.00;61774.03;4996273;28;20512;-69
2022/04/23 08:19:29;;;;;;;6.75;5.90;;;;;;;-139.48;100.00;61774.03;4996140;28;20045;-70
2022/04/23 08:22:13;;;;;;;8.75;5.57;;;;;;;-139.48;100.00;61774.03;4982418;28;20109;-70
2022/04/23 08:24:57;;;;;;;5.80;5.15;;;;;;;-139.48;100.00;61774.03;4982233;28;20072;-70
2022/04/23 08:27:54;;;;;;;14.10;6.00;;;;;;;-139.48;100.00;61774.03;4996849;28;20045;-70
2022/04/23 08:30:38;;;;;;;6.60;5.63;;;;;;;-139.48;100.00;61774.03;4997048;28;20093;-70
2022/04/23 08:33:22;;;;;;;7.15;6.10;;;;;;;-139.48;100.00;61774.03;4997035;28;20052;-70
2022/04/23 08:36:07;;;;;;;8.82;5.85;;;;;;;-139.48;100.00;61774.03;4995978;28;20116;-69
2022/04/23 08:38:51;;;;;;;6.47;5.65;;;;;;;-139.48;100.00;61774.03;4995675;28;20037;-69
2022/04/23 08:41:35;;;;;;;6.93;5.90;;;;;;;-139.48;100.00;61774.03;4996554;28;20422;-70
2022/04/23 08:44:21;;;;;;;7.10;5.82;;;;;;;-139.48;100.00;61774.03;4995811;28;20057;-69
2022/04/23 08:47:05;;;;;;;8.18;6.53;;;;;;;-139.48;100.00;61774.03;4995731;28;20410;-69
2022/04/23 08:49:53;;;;;;;;;;;;;;;-139.48;100.00;61774.03;4995893;28;20077;-69
2022/04/23 08:52:43;;;;;;;9.20;5.90;;;;;;;-139.48;100.00;61774.03;4995482;28;19920;-69
2022/04/23 08:55:27;;;;;;;7.75;5.60;;;;;;;-139.48;100.00;61774.03;4995582;28;20045;-69
2022/04/23 08:58:15;;;;;;;7.55;5.38;;;;;;;-139.48;100.00;61774.03;4995341;28;20049;-70
2022/04/23 09:00:59;;;;;;;5.70;5.05;;;;;;;-139.48;100.00;61774.03;4995058;28;20104;-69
2022/04/23 09:03:43;;;;;;;7.28;5.32;;;;;;;-139.48;100.00;61774.03;4996317;28;20076;-69
2022/04/23 09:06:41;;;;;;;5.72;5.10;;;;;;;-139.48;100.00;61774.03;4996095;28;20053;-70
2022/04/23 09:09:25;;;;;;;6.50;5.13;;;;;;;-139.48;100.00;61774.03;4995415;28;20100;-69
2022/04/23 09:12:09;;;;;;;6.95;5.10;;;;;;;-139.48;100.00;61774.03;4996531;28;20050;-69
2022/04/23 09:23:39;;;;;;;6.25;5.30;;;;;;;-139.48;100.00;61774.03;4994940;28;20056;-70
2022/04/23 09:24:19;;;;;;;6.88;5.10;;;;;;;-139.48;100.00;61774.03;4995028;28;20083;-70
2022/04/23 09:27:05;;;;;;;6.60;5.22;;;;;;;-139.48;100.00;61774.03;4994771;28;20092;-70
2022/04/23 09:30:05;;;;;;;7.13;4.72;;;;;;;-139.48;100.00;61774.03;4994905;28;20053;-70
2022/04/23 09:32:57;;;;;;;5.25;4.43;;;;;;;-139.48;100.00;61774.03;4994851;28;20046;-70
2022/04/23 09:35:59;;;;;;;4.93;4.18;;;;;;;-139.48;100.00;61774.03;4995470;28;20529;-70
2022/04/23 09:38:42;;;;;;;5.53;4.45;;;;;;;-139.48;100.00;61774.03;4995671;28;20057;-70
2022/04/23 09:41:33;;;;;;;4.90;4.40;;;;;;;-139.48;100.00;61774.03;4981001;28;20129;-70
2022/04/23 09:44:27;;;;;;;4.97;4.20;;;;;;;-139.48;100.00;61774.03;4994623;28;20470;-70
2022/04/23 09:47:30;;;;;;;4.65;3.90;;;;;;;-139.48;100.00;61774.03;4994461;28;20053;-70
2022/04/23 09:50:15;;;;;;;5.50;4.90;;;;;;;-139.48;100.00;61774.03;4995391;28;20041;-70
2022/04/23 09:53:11;;;;;;;4.60;4.00;;;;;;;-139.48;100.00;61774.03;4994472;28;20138;-70
2022/04/23 09:55:59;;;;;;;4.10;3.70;;;;;;;-139.48;100.00;61774.03;4995640;28;20108;-70
2022/04/23 09:58:43;;;;;;;10.70;4.50;;;;;;;-139.48;100.00;61774.03;4995036;28;20045;-69
2022/04/23 10:01:29;;;;;;;6.72;4.30;;;;;;;-139.48;100.00;61774.03;4994517;28;20049;-70
2022/04/23 10:04:20;;;;;;;4.55;3.65;;;;;;;-139.48;100.00;61774.03;4994178;28;20057;-69
2022/04/23 10:07:05;;;;;;;8.25;5.82;;;;;;;-139.48;100.00;61774.03;4995456;28;20046;-70
2022/04/23 10:09:49;;;;;;;19.67;5.47;;;;;;;-139.48;100.00;61774.03;4994602;28;20097;-70
2022/04/23 10:12:35;;;;;;;5.25;4.75;;;;;;;-139.48;100.00;61774.03;4995237;28;20061;-70
2022/04/23 10:15:19;;;;;;;4.00;3.60;;;;;;;-139.48;100.00;61774.03;4980682;28;20092;-71
2022/04/23 10:18:08;;;;;;;5.78;3.75;;;;;;;-139.48;100.00;61774.03;4994263;28;20414;-70
2022/04/23 10:20:55;;;;;;;4.47;3.53;;;;;;;-139.48;100.00;61774.03;4995080;28;20139;-70
2022/04/23 10:23:58;;;;;;;3.78;3.47;;;;;;;-139.48;100.00;61774.03;4994472;28;20057;-70
2022/04/23 10:26:50;;;;;;;8.52;3.72;;;;;;;-139.48;100.00;61774.03;4980920;28;20041;-71
2022/04/23 10:29:34;;;;;;;4.93;3.80;;;;;;;-139.48;100.00;61774.03;4994148;28;20172;-70
2022/04/23 10:32:20;;;;;;;5.45;4.35;;;;;;;-139.48;100.00;61774.03;4994112;28;20049;-70
2022/04/23 10:35:24;;;;;;;4.88;3.67;;;;;;;-139.48;100.00;61774.03;4994248;28;20096;-70
2022/04/23 10:38:19;;;;;;;7.93;6.75;;;;;;;-139.48;100.00;61774.03;4994651;28;20046;-70
2022/04/23 10:41:05;;;;;;;4.28;3.88;;;;;;;-139.48;100.00;61774.03;4994600;28;20465;-70
2022/04/23 10:43:59;;;;;;;3.63;3.30;;;;;;;-139.48;100.00;61774.03;4993648;28;20505;-70
2022/04/23 10:46:44;;;;;;;3.70;3.40;;;;;;;-139.48;100.00;61774.03;4993277;28;20049;-69
2022/04/23 10:49:28;;;;;;;3.50;3.20;;;;;;;-139.48;100.00;61774.03;4994429;28;20061;-70
2022/04/23 10:52:35;;;;;;;6.40;3.38;;;;;;;-139.48;100.00;61774.03;4994383;28;20096;-70
2022/04/23 10:55:20;;;;;;;3.38;3.05;;;;;;;-139.48;100.00;61774.03;4994386;28;20053;-70
2022/04/23 10:58:21;;;;;;;2.80;2.60;;;;;;;-139.48;100.00;61774.03;4993324;28;20053;-70
2022/04/23 11:01:22;;;;;;;10.00;3.78;;;;;;;-139.48;100.00;61774.03;4993265;28;20092;-70
2022/04/23 11:04:06;;;;;;;6.60;2.85;;;;;;;-139.48;100.00;61774.03;4993546;28;20545;-70
2022/04/23 11:13:20;;;;;;;5.25;3.10;;;;;;;-139.48;100.00;61774.03;4993242;28;20053;-70
2022/04/23 11:16:13;;;;;;;3.95;2.90;;;;;;;-139.48;100.00;61774.03;4992854;28;20091;-70
2022/04/23 11:18:59;;;;;;;4.22;2.92;;;;;;;-139.48;100.00;61774.03;4992974;28;20045;-70
2022/04/23 11:21:43;;;;;;;4.65;2.92;;;;;;;-139.48;100.00;61774.03;4993040;28;20045;-70
2022/04/23 11:24:28;;;;;;;5.15;4.60;;;;;;;-139.48;100.00;61774.03;4992807;28;20423;-70
2022/04/23 11:27:36;;;;;;;4.82;4.43;;;;;;;-139.48;100.00;61774.03;4993143;28;20053;-69
2022/04/23 11:30:28;;;;;;;4.90;4.50;;;;;;;-139.48;100.00;61774.03;4993934;28;20088;-70
2022/04/23 11:33:12;;;;;;;6.22;4.53;;;;;;;-139.48;100.00;61774.03;4993721;28;20053;-70
2022/04/23 11:35:57;;;;;;;5.30;4.80;;;;;;;-139.48;100.00;61774.03;4993692;28;20061;-70
2022/04/23 11:38:42;;;;;;;4.88;4.47;;;;;;;-139.48;100.00;61774.03;4992603;28;20513;-70
2022/04/23 11:41:36;;;;;;;4.82;4.43;;;;;;;-139.48;100.00;61774.03;4992925;28;20045;-69
2022/04/23 11:47:30;;;;;;;4.72;4.20;;;;;;;-139.48;100.00;61774.03;4992849;28;20040;-70
2022/04/23 11:50:21;;;;;;;5.35;4.10;;;;;;;-139.48;100.00;61774.03;4993062;28;20181;-70
2022/04/23 11:53:05;;;;;;;4.53;4.13;;;;;;;-139.48;100.00;61774.03;4992830;28;20104;-69
2022/04/23 11:55:49;;;;;;;4.63;4.22;;;;;;;-139.48;100.00;61774.03;4978799;28;20076;-69
2022/04/23 11:58:33;;;;;;;5.00;4.45;;;;;;;-139.48;100.00;61774.03;4993698;28;20056;-70
2022/04/23 12:01:17;;;;;;;;;;;;;;;-139.48;100.00;61774.03;4993083;28;20048;-70
2022/04/23 12:04:01;;;;;;;5.10;3.92;;;;;;;-139.48;100.00;61774.03;4993468;28;20400;-70
2022/04/23 12:06:45;;;;;;;;;;;;;;;-139.48;100.00;61774.03;4993165;28;20044;-70
2022/04/23 12:09:29;;;;;;;4.68;3.55;;;;;;;-139.48;100.00;61774.03;4992697;28;19921;-70
2022/04/23 12:12:15;;;;;;;3.80;3.28;;;;;;;-139.48;100.00;61774.03;4979183;28;20173;-70
2022/04/23 12:15:01;;;;;;;3.88;3.47;;;;;;;-139.48;100.00;61774.03;4993588;28;20049;-70
2022/04/23 12:17:47;;;;;;;4.75;3.25;;;;;;;-139.48;100.00;61774.03;4992395;28;20104;-69
2022/04/23 12:20:35;;;;;;;4.30;3.60;;;;;;;-139.48;100.00;61774.03;4993279;28;20050;-70
2022/04/23 12:23:19;;;;;;;3.60;3.20;;;;;;;-139.48;100.00;61774.03;4992630;28;20057;-70
2022/04/23 12:26:08;;;;;;;3.38;2.72;;;;;;;-139.48;100.00;61774.03;4992265;28;20140;-70
2022/04/23 12:40:57;;;;;;;7.35;3.70;;;;;;;-139.48;100.00;61774.03;4995691;28;20525;-70
2022/04/23 12:43:41;;;;;;;4.75;3.50;;;;;;;-139.48;100.00;61774.03;4996533;28;20161;-70
2022/04/23 12:46:25;;;;;;;4.15;3.80;;;;;;;-139.48;100.00;61774.03;4997067;28;20057;-70
2022/04/23 12:49:09;;;;;;;5.78;3.38;;;;;;;-139.48;100.00;61774.03;4981707;28;20125;-70
2022/04/23 12:51:53;;;;;;;;;;;;;;;-139.48;100.00;61774.03;4996110;28;20509;-70
2022/04/23 12:54:37;;;;;;;4.43;3.85;;;;;;;-139.48;100.00;61774.03;4995696;28;19920;-70
2022/04/23 12:57:21;;;;;;;4.32;3.50;;;;;;;-139.48;100.00;61774.03;4996499;28;20493;-70
2022/04/23 13:00:06;;;;;;;4.40;3.88;;;;;;;-139.48;100.00;61774.03;4996206;28;20100;-70
2022/04/23 13:02:59;;;;;;;4.68;4.28;;;;;;;-139.48;100.00;61774.03;4996538;28;20410;-70